GLD1794 HUEN-HUKJ
Flight info
| Callsign | GLD1794 |
|---|---|
| Flight time | 0h 8m |
| Altitude | 7000 |
| Route | DUNVA |
| Aircraft | BE58/L-SDFGRY/C |
Departure
| Time | 2026-05-09 11:35 |
|---|---|
| Airport | Entebbe International Airport (HUEN) |
Arrival
| Time | 2026-05-09 11:44 |
|---|---|
| Airport | Kajjansi Airfield (HUKJ) |
| Time | Latitude | Longitude | Altitude | Speed | Heading |
|---|---|---|---|---|---|
| 2026-05-09 11:11 | 0.04802 | 32.44139 | 3774 ft | 0 kts | 122° |
| 2026-05-09 11:30 | 0.04790 | 32.44121 | 3777 ft | 8 kts | 275° |
| 2026-05-09 11:31 | 0.04835 | 32.44062 | 3775 ft | 10 kts | 320° |
| 2026-05-09 11:31 | 0.04876 | 32.44015 | 3775 ft | 8 kts | 286° |
| 2026-05-09 11:31 | 0.04874 | 32.43975 | 3776 ft | 6 kts | 262° |
| 2026-05-09 11:31 | 0.04876 | 32.43898 | 3781 ft | 15 kts | 307° |
| 2026-05-09 11:32 | 0.04972 | 32.43875 | 3778 ft | 13 kts | 354° |
| 2026-05-09 11:32 | 0.05052 | 32.43848 | 3776 ft | 12 kts | 300° |
| 2026-05-09 11:32 | 0.05054 | 32.43778 | 3776 ft | 9 kts | 262° |
| 2026-05-09 11:32 | 0.05043 | 32.43721 | 3778 ft | 8 kts | 257° |
| 2026-05-09 11:33 | 0.05004 | 32.43699 | 3774 ft | 8 kts | 171° |
| 2026-05-09 11:33 | 0.04957 | 32.43705 | 3779 ft | 5 kts | 174° |
| 2026-05-09 11:33 | 0.04955 | 32.43705 | 3778 ft | 0 kts | 170° |
| 2026-05-09 11:34 | 0.04882 | 32.43716 | 3772 ft | 43 kts | 171° |
| 2026-05-09 11:34 | 0.04354 | 32.43788 | 3785 ft | 105 kts | 172° |
| 2026-05-09 11:34 | 0.03553 | 32.43908 | 3991 ft | 123 kts | 171° |
| 2026-05-09 11:35 | 0.02694 | 32.44067 | 4350 ft | 128 kts | 171° |
| 2026-05-09 11:35 | 0.01814 | 32.44237 | 4741 ft | 129 kts | 170° |
| 2026-05-09 11:35 | 0.00965 | 32.44532 | 5044 ft | 137 kts | 137° |
| 2026-05-09 11:35 | 0.00648 | 32.45435 | 5379 ft | 148 kts | 87° |
| 2026-05-09 11:36 | 0.01092 | 32.46362 | 5742 ft | 155 kts | 42° |
| 2026-05-09 11:36 | 0.02022 | 32.46916 | 6133 ft | 156 kts | 29° |
| 2026-05-09 11:36 | 0.02959 | 32.47459 | 6551 ft | 156 kts | 31° |
| 2026-05-09 11:36 | 0.03880 | 32.48024 | 6930 ft | 155 kts | 32° |
| 2026-05-09 11:37 | 0.04850 | 32.48626 | 6978 ft | 173 kts | 33° |
| 2026-05-09 11:37 | 0.05915 | 32.49293 | 6983 ft | 187 kts | 33° |
| 2026-05-09 11:37 | 0.07048 | 32.50001 | 6985 ft | 196 kts | 32° |
| 2026-05-09 11:37 | 0.08226 | 32.50739 | 6984 ft | 203 kts | 32° |
| 2026-05-09 11:38 | 0.09437 | 32.51496 | 6983 ft | 207 kts | 32° |
| 2026-05-09 11:38 | 0.10652 | 32.52257 | 6980 ft | 210 kts | 32° |
| 2026-05-09 11:38 | 0.11895 | 32.53034 | 6978 ft | 212 kts | 33° |
| 2026-05-09 11:38 | 0.13157 | 32.53828 | 6855 ft | 218 kts | 34° |
| 2026-05-09 11:39 | 0.14233 | 32.54924 | 6603 ft | 226 kts | 57° |
| 2026-05-09 11:39 | 0.14718 | 32.56417 | 6324 ft | 224 kts | 89° |
| 2026-05-09 11:39 | 0.14854 | 32.57854 | 6019 ft | 197 kts | 73° |
| 2026-05-09 11:40 | 0.16751 | 32.59222 | 5489 ft | 168 kts | 351° |
| 2026-05-09 11:40 | 0.17647 | 32.58660 | 5479 ft | 145 kts | 299° |
| 2026-05-09 11:40 | 0.17712 | 32.57768 | 5482 ft | 124 kts | 238° |
| 2026-05-09 11:40 | 0.17077 | 32.57267 | 5494 ft | 119 kts | 205° |
| 2026-05-09 11:41 | 0.16286 | 32.57224 | 5506 ft | 119 kts | 149° |
| 2026-05-09 11:41 | 0.15675 | 32.57779 | 5510 ft | 123 kts | 136° |
| 2026-05-09 11:41 | 0.15158 | 32.58457 | 5508 ft | 126 kts | 103° |
| 2026-05-09 11:41 | 0.15401 | 32.59245 | 5505 ft | 124 kts | 40° |
| 2026-05-09 11:42 | 0.16205 | 32.59376 | 5335 ft | 121 kts | 337° |
| 2026-05-09 11:42 | 0.16756 | 32.58783 | 4851 ft | 120 kts | 285° |
| 2026-05-09 11:42 | 0.16957 | 32.57999 | 4450 ft | 112 kts | 288° |
| 2026-05-09 11:42 | 0.17364 | 32.57364 | 4211 ft | 104 kts | 305° |
| 2026-05-09 11:43 | 0.17831 | 32.56854 | 4049 ft | 94 kts | 309° |
| 2026-05-09 11:43 | 0.18322 | 32.56400 | 3971 ft | 98 kts | 316° |
| 2026-05-09 11:43 | 0.18868 | 32.55964 | 3857 ft | 102 kts | 319° |
| 2026-05-09 11:43 | 0.19412 | 32.55519 | 3748 ft | 94 kts | 318° |
| 2026-05-09 11:44 | 0.19718 | 32.55260 | 3752 ft | 21 kts | 321° |
| 2026-05-09 11:44 | 0.19800 | 32.55193 | 3751 ft | 12 kts | 320° |
| 2026-05-09 11:44 | 0.19852 | 32.55147 | 3750 ft | 8 kts | 319° |
| 2026-05-09 11:44 | 0.19878 | 32.55121 | 3750 ft | 5 kts | 297° |
| 2026-05-09 11:45 | 0.19876 | 32.55082 | 3750 ft | 7 kts | 289° |
| 2026-05-09 11:45 | 0.19904 | 32.55047 | 3750 ft | 2 kts | 315° |
| 2026-05-09 11:45 | 0.19904 | 32.55046 | 3750 ft | 0 kts | 314° |